createdAt,value
2019-01-09T00:00:56.674Z,1.7
2019-01-09T00:01:56.952Z,1.76
2019-01-09T00:02:58.090Z,1.82
2019-01-09T00:03:59.614Z,1.81
2019-01-09T00:05:00.045Z,1.81
2019-01-09T00:06:00.827Z,1.79
2019-01-09T00:07:01.517Z,1.74
2019-01-09T00:08:02.310Z,1.68
2019-01-09T00:09:02.727Z,1.76
2019-01-09T00:10:03.694Z,1.79
2019-01-09T00:11:04.112Z,1.76
2019-01-09T00:12:04.245Z,1.74
2019-01-09T00:13:04.935Z,1.71
2019-01-09T00:14:05.626Z,1.64
2019-01-09T00:15:06.318Z,1.63
2019-01-09T00:16:06.463Z,1.68
2019-01-09T00:17:07.151Z,1.7
2019-01-09T00:18:07.845Z,1.6
2019-01-09T00:19:08.983Z,1.57
2019-01-09T00:20:09.398Z,1.6
2019-01-09T00:21:10.366Z,1.57
2019-01-09T00:22:10.972Z,1.53
2019-01-09T00:23:11.393Z,1.52
2019-01-09T00:24:11.811Z,1.56
2019-01-09T00:25:12.946Z,1.58
2019-01-09T00:26:13.915Z,1.61
2019-01-09T00:27:14.330Z,1.64
2019-01-09T00:28:15.374Z,1.68
2019-01-09T00:29:16.788Z,1.68
2019-01-09T00:30:17.481Z,1.75
2019-01-09T00:31:17.617Z,1.66
2019-01-09T00:32:18.441Z,1.64
2019-01-09T00:33:19.409Z,1.76
2019-01-09T00:34:20.655Z,1.71
2019-01-09T00:35:21.070Z,1.79
2019-01-09T00:36:22.312Z,1.81
2019-01-09T00:37:22.279Z,1.78
2019-01-09T00:38:22.689Z,1.78
2019-01-09T00:39:23.383Z,1.85
2019-01-09T00:40:24.631Z,1.79
2019-01-09T00:41:24.769Z,1.79
2019-01-09T00:42:25.344Z,1.74
2019-01-09T00:43:26.313Z,1.82
2019-01-09T00:44:26.563Z,1.84
2019-01-09T00:45:27.319Z,1.76
2019-01-09T00:46:27.454Z,1.84
2019-01-09T00:47:28.144Z,1.81
2019-01-09T00:48:28.559Z,1.74
2019-01-09T00:49:28.973Z,1.82
2019-01-09T00:50:29.388Z,1.84
2019-01-09T00:51:30.155Z,1.81
2019-01-09T00:52:31.009Z,1.84
2019-01-09T00:53:32.146Z,1.79
2019-01-09T00:54:33.557Z,1.81
2019-01-09T00:55:34.694Z,1.76
2019-01-09T00:56:36.109Z,1.78
2019-01-09T00:57:36.244Z,1.81
2019-01-09T00:58:37.214Z,1.71
2019-01-09T00:59:38.902Z,1.82
2019-01-09T01:00:38.608Z,1.74
2019-01-09T01:01:39.297Z,1.81
2019-01-09T01:02:40.122Z,1.75
2019-01-09T01:03:40.868Z,1.89
2019-01-09T01:04:41.280Z,1.74
2019-01-09T01:05:47.569Z,1.76
2019-01-09T01:05:53.988Z,1.84
2019-01-09T01:06:55.088Z,1.78
2019-01-09T01:07:57.060Z,1.74
2019-01-09T01:08:57.479Z,1.86
2019-01-09T01:09:58.449Z,1.75
2019-01-09T01:10:58.859Z,1.82
2019-01-09T01:11:59.284Z,1.71
2019-01-09T01:13:00.031Z,1.79
2019-01-09T01:14:00.725Z,1.79
2019-01-09T01:15:02.135Z,1.7
2019-01-09T01:16:02.925Z,1.66
2019-01-09T01:17:03.305Z,1.6
2019-01-09T01:18:04.280Z,1.63
2019-01-09T01:19:05.247Z,1.64
2019-01-09T01:20:05.851Z,1.61
2019-01-09T01:21:05.986Z,1.53
2019-01-09T01:22:06.681Z,1.67
2019-01-09T01:23:07.435Z,1.53
2019-01-09T01:24:07.570Z,1.57
2019-01-09T01:25:08.264Z,1.6
2019-01-09T01:26:09.233Z,1.61
2019-01-09T01:27:09.435Z,1.66
2019-01-09T01:28:09.850Z,1.66
2019-01-09T01:29:10.821Z,1.74
2019-01-09T01:30:11.879Z,1.71
2019-01-09T01:31:12.290Z,1.66
2019-01-09T01:32:13.013Z,1.71
2019-01-09T01:33:13.979Z,1.79
2019-01-09T01:34:14.395Z,1.81
2019-01-09T01:35:16.083Z,1.79
2019-01-09T01:36:15.777Z,1.7
2019-01-09T01:37:16.923Z,1.84
2019-01-09T01:38:18.062Z,1.78
2019-01-09T01:39:19.474Z,1.81
2019-01-09T01:40:20.445Z,1.76
2019-01-09T01:41:20.858Z,1.74
2019-01-09T01:42:21.549Z,1.76
2019-01-09T01:43:21.965Z,1.78
2019-01-09T01:44:22.382Z,1.75
2019-01-09T01:45:23.073Z,1.81
2019-01-09T01:46:23.498Z,1.78
2019-01-09T01:47:24.047Z,1.79
2019-01-09T01:48:24.464Z,1.82
2019-01-09T01:49:24.966Z,1.89
2019-01-09T01:50:25.378Z,1.85
2019-01-09T01:51:27.163Z,1.79
2019-01-09T01:52:27.300Z,1.79
2019-01-09T01:53:28.990Z,1.78
2019-01-09T01:54:29.682Z,1.76
2019-01-09T01:55:30.368Z,1.76
2019-01-09T01:56:30.779Z,1.78
2019-01-09T01:57:32.160Z,1.88
2019-01-09T01:58:33.207Z,1.84
2019-01-09T01:59:33.623Z,1.86
2019-01-09T02:00:34.321Z,1.89
2019-01-09T02:01:34.736Z,1.81
2019-01-09T02:02:35.515Z,1.82
2019-01-09T02:03:35.930Z,1.84
2019-01-09T02:04:36.344Z,1.84
2019-01-09T02:05:37.102Z,1.76
2019-01-09T02:06:37.797Z,1.74
2019-01-09T02:07:38.204Z,1.78
2019-01-09T02:08:38.618Z,1.78
2019-01-09T02:09:39.117Z,1.74
2019-01-09T02:10:40.805Z,1.64
2019-01-09T02:11:41.506Z,1.71
2019-01-09T02:12:42.200Z,1.63
2019-01-09T02:13:43.418Z,1.61
2019-01-09T02:14:44.840Z,1.61
2019-01-09T02:15:44.972Z,1.53
2019-01-09T02:16:46.386Z,1.5
2019-01-09T02:17:46.945Z,1.5
2019-01-09T02:18:47.358Z,1.42
2019-01-09T02:19:47.773Z,1.39
2019-01-09T02:20:49.189Z,1.42
2019-01-09T02:21:49.603Z,1.49
2019-01-09T02:22:50.376Z,1.57
2019-01-09T02:23:51.816Z,1.49
2019-01-09T02:24:52.614Z,1.53
2019-01-09T02:25:52.749Z,1.56
2019-01-09T02:26:53.166Z,1.42
2019-01-09T02:27:54.319Z,1.39
2019-01-09T02:28:54.734Z,1.45
2019-01-09T02:29:55.438Z,1.5
2019-01-09T02:30:55.964Z,1.39
2019-01-09T02:31:56.932Z,1.45
2019-01-09T02:32:57.067Z,1.53
2019-01-09T02:33:57.770Z,1.56
2019-01-09T02:34:58.743Z,1.57
2019-01-09T02:35:58.726Z,1.53
2019-01-09T02:36:59.696Z,1.64
2019-01-09T02:38:00.827Z,1.57
2019-01-09T02:39:01.360Z,1.53
2019-01-09T02:40:02.617Z,1.53
2019-01-09T02:41:03.321Z,1.45
2019-01-09T02:42:04.761Z,1.49
2019-01-09T02:43:06.471Z,1.52
2019-01-09T02:44:06.174Z,1.52
2019-01-09T02:45:07.867Z,1.49
2019-01-09T02:46:08.289Z,1.52
2019-01-09T02:47:08.707Z,1.56
2019-01-09T02:48:09.317Z,1.56
2019-01-09T02:49:10.165Z,1.61
2019-01-09T02:50:11.476Z,1.53
2019-01-09T02:51:11.725Z,1.64
2019-01-09T02:52:12.782Z,1.67
2019-01-09T02:53:13.761Z,1.7
2019-01-09T02:54:14.731Z,1.7
2019-01-09T02:55:15.999Z,1.57
2019-01-09T02:56:16.321Z,1.63
2019-01-09T02:57:17.016Z,1.67
2019-01-09T02:58:01.723Z,1.7
2019-01-09T02:59:02.732Z,1.64
2019-01-09T03:00:04.791Z,1.78
2019-01-09T03:01:04.495Z,1.79
2019-01-09T03:02:05.484Z,1.79
2019-01-09T03:03:06.468Z,1.75
2019-01-09T03:04:06.996Z,1.76
2019-01-09T03:05:07.693Z,1.79
2019-01-09T03:06:08.382Z,1.76
2019-01-09T03:07:08.915Z,1.75
2019-01-09T03:08:09.731Z,1.74
2019-01-09T03:09:09.676Z,1.66
2019-01-09T03:10:10.468Z,1.66
2019-01-09T03:11:12.281Z,1.74
2019-01-09T03:12:12.974Z,1.67
2019-01-09T03:13:13.238Z,1.67
2019-01-09T03:14:13.373Z,1.71
2019-01-09T03:15:15.187Z,1.66
2019-01-09T03:16:15.190Z,1.63
2019-01-09T03:17:15.884Z,1.74
2019-01-09T03:18:16.852Z,1.63
2019-01-09T03:19:18.276Z,1.75
2019-01-09T03:20:18.682Z,1.71
2019-01-09T03:21:19.098Z,1.68
2019-01-09T03:22:19.932Z,1.7
2019-01-09T03:23:20.910Z,1.6
2019-01-09T03:24:21.879Z,1.63
2019-01-09T03:25:22.415Z,1.63
2019-01-09T03:26:23.551Z,1.6
2019-01-09T03:27:24.517Z,1.63
2019-01-09T03:28:25.109Z,1.6
2019-01-09T03:29:25.223Z,1.53
2019-01-09T03:30:26.393Z,1.53
2019-01-09T03:31:27.759Z,1.49
2019-01-09T03:32:28.904Z,1.45
2019-01-09T03:33:28.931Z,1.43
2019-01-09T03:34:29.345Z,1.46
2019-01-09T03:35:30.315Z,1.39
2019-01-09T03:36:34.701Z,1.4
2019-01-09T03:37:35.400Z,1.4
2019-01-09T03:38:36.647Z,1.45
2019-01-09T03:39:36.504Z,1.4
2019-01-09T03:40:37.017Z,1.4
2019-01-09T03:41:38.817Z,1.48
2019-01-09T03:42:39.240Z,1.5
2019-01-09T03:43:39.936Z,1.38
2019-01-09T03:44:41.348Z,1.45
2019-01-09T03:45:42.045Z,1.3
2019-01-09T03:46:42.743Z,1.38
2019-01-09T03:47:42.890Z,1.31
2019-01-09T03:48:43.597Z,1.31
2019-01-09T03:49:44.983Z,1.28
2019-01-09T03:50:45.704Z,1.27
2019-01-09T03:51:46.396Z,1.34
2019-01-09T03:52:47.370Z,1.25
2019-01-09T03:53:48.346Z,1.31
2019-01-09T03:54:50.148Z,1.42
2019-01-09T03:55:50.566Z,1.31
2019-01-09T03:56:51.085Z,1.32
2019-01-09T03:57:51.918Z,1.3
2019-01-09T03:58:52.581Z,1.34
2019-01-09T03:59:52.706Z,1.34
2019-01-09T04:00:53.117Z,1.27
2019-01-09T04:01:54.085Z,1.31
2019-01-09T04:02:54.779Z,1.31
2019-01-09T04:03:54.931Z,1.25
2019-01-09T04:04:56.179Z,1.27
2019-01-09T04:05:56.872Z,1.25
2019-01-09T04:06:56.842Z,1.27
2019-01-09T04:07:58.091Z,1.22
2019-01-09T04:08:58.065Z,1.14
2019-01-09T04:09:59.175Z,1.2
2019-01-09T04:10:59.593Z,1.21
2019-01-09T04:12:00.017Z,1.16
2019-01-09T04:13:00.990Z,1.14
2019-01-09T04:14:02.244Z,1.21
2019-01-09T04:15:03.357Z,1.14
2019-01-09T04:16:03.911Z,1.22
2019-01-09T04:17:04.612Z,1.14
2019-01-09T04:18:05.306Z,1.25
2019-01-09T04:19:06.300Z,1.3
2019-01-09T04:20:07.171Z,1.27
2019-01-09T04:21:08.582Z,1.25
2019-01-09T04:22:09.908Z,1.38
2019-01-09T04:23:09.599Z,1.45
2019-01-09T04:24:10.844Z,1.38
2019-01-09T04:25:11.824Z,1.42
2019-01-09T04:26:11.798Z,1.45
2019-01-09T04:27:13.069Z,1.42
2019-01-09T04:28:13.534Z,1.4
2019-01-09T04:29:13.703Z,1.38
2019-01-09T04:30:14.530Z,1.39
2019-01-09T04:31:15.500Z,1.43
2019-01-09T04:32:16.479Z,1.48
2019-01-09T04:33:16.618Z,1.43
2019-01-09T04:34:17.594Z,1.42
2019-01-09T04:35:17.732Z,1.46
2019-01-09T04:36:19.037Z,1.42
2019-01-09T04:37:20.019Z,1.5
2019-01-09T04:38:20.992Z,1.48
2019-01-09T04:39:20.687Z,1.32
2019-01-09T04:40:22.114Z,1.28
2019-01-09T04:41:22.526Z,1.22
2019-01-09T04:42:22.950Z,1.18
2019-01-09T04:43:24.199Z,1.16
2019-01-09T04:44:25.186Z,1.04
2019-01-09T04:45:26.470Z,1.09
2019-01-09T04:46:26.296Z,1.1
2019-01-09T04:47:26.987Z,1
2019-01-09T04:48:27.400Z,0.95
2019-01-09T04:49:28.378Z,1.1
2019-01-09T04:50:29.619Z,0.95
2019-01-09T04:51:30.313Z,1.02
2019-01-09T04:52:30.529Z,1
2019-01-09T04:53:31.669Z,1.1
2019-01-09T04:54:32.913Z,1
2019-01-09T04:55:33.898Z,1.03
2019-01-09T06:42:49.310Z,1.18
2019-01-09T06:43:50.279Z,1.13
2019-01-09T06:44:50.995Z,1.3
2019-01-09T06:45:51.409Z,1.25
2019-01-09T06:46:52.097Z,1.31
2019-01-09T06:47:52.859Z,1.34
2019-01-09T06:48:53.554Z,1.38
2019-01-09T06:49:54.596Z,1.4
2019-01-09T06:50:54.739Z,1.45
2019-01-09T06:51:55.792Z,1.43
2019-01-09T06:52:57.106Z,1.4
2019-01-09T06:53:59.012Z,1.42
2019-01-09T06:54:59.770Z,1.45
2019-01-09T06:56:00.372Z,1.49
2019-01-09T06:57:00.941Z,1.39
2019-01-09T06:58:04.843Z,1.5
2019-01-09T06:59:02.936Z,1.38
2019-01-09T07:00:04.289Z,1.43
2019-01-09T07:01:05.252Z,1.45
2019-01-09T07:02:06.218Z,1.48
2019-01-09T07:03:07.311Z,1.42
2019-01-09T07:04:07.721Z,1.42
2019-01-09T07:05:08.140Z,1.5
2019-01-09T07:06:08.556Z,1.38
2019-01-09T07:07:09.687Z,1.34
2019-01-09T07:08:10.377Z,1.42
2019-01-09T07:09:11.397Z,1.42
2019-01-09T07:10:12.364Z,1.43
2019-01-09T07:11:12.670Z,1.45
2019-01-09T07:12:13.386Z,1.45
2019-01-09T07:13:13.941Z,1.4
2019-01-09T07:14:14.907Z,1.4
2019-01-09T07:15:15.074Z,1.46
2019-01-09T07:16:15.505Z,1.39
2019-01-09T07:17:16.914Z,1.42
2019-01-09T07:18:18.919Z,1.42
2019-01-09T07:19:19.082Z,1.38
2019-01-09T07:20:19.598Z,1.46
2019-01-09T07:21:20.915Z,1.39
2019-01-09T07:22:21.523Z,1.4
2019-01-09T07:23:22.232Z,1.39
2019-01-09T07:24:22.507Z,1.4
2019-01-09T07:25:23.227Z,1.39
2019-01-09T07:26:24.773Z,1.4
2019-01-09T07:27:25.777Z,1.48
2019-01-09T07:28:25.643Z,1.45
2019-01-09T07:29:26.955Z,1.39
2019-01-09T07:30:27.367Z,1.4
2019-01-09T07:31:27.778Z,1.4
2019-01-09T07:32:28.191Z,1.34
2019-01-09T07:33:29.564Z,1.39
2019-01-09T07:34:30.392Z,1.34
2019-01-09T07:35:31.835Z,1.39
2019-01-09T07:36:32.511Z,1.3
2019-01-09T07:37:32.687Z,1.3
2019-01-09T07:38:34.180Z,1.3
2019-01-09T07:39:34.715Z,1.3
2019-01-09T07:40:35.126Z,1.21
2019-01-09T07:41:36.094Z,1.24
2019-01-09T07:42:37.064Z,1.31
2019-01-09T07:43:37.876Z,1.27
2019-01-09T07:44:38.702Z,1.22
2019-01-09T07:45:39.110Z,1.13
2019-01-09T07:46:40.640Z,1.16
2019-01-09T07:47:41.611Z,1.06
2019-01-09T07:48:42.302Z,0.99
2019-01-09T07:49:43.880Z,0.95
2019-01-09T07:50:43.291Z,0.95
2019-01-09T07:51:44.086Z,0.99
2019-01-09T07:52:48.515Z,0.92
2019-01-09T07:53:00.817Z,0.94
2019-01-09T07:53:13.166Z,0.92
2019-01-09T07:53:22.391Z,0.95
2019-01-09T07:54:22.562Z,0.91
2019-01-09T07:55:22.975Z,0.96
2019-01-09T07:56:23.740Z,1
2019-01-09T07:57:24.149Z,0.96
2019-01-09T07:58:24.557Z,1
2019-01-09T07:59:26.517Z,0.94
2019-01-09T08:00:27.432Z,0.96
2019-01-09T08:01:27.660Z,1.03
2019-01-09T08:02:28.069Z,0.95
2019-01-09T08:03:28.760Z,0.99
2019-01-09T08:04:29.920Z,0.99
2019-01-09T08:05:30.793Z,0.96
2019-01-09T08:06:31.483Z,1
2019-01-09T08:07:31.453Z,0.99
2019-01-09T08:08:33.147Z,0.99
2019-01-09T08:09:33.563Z,1.14
2019-01-09T08:10:34.617Z,1.06
2019-01-09T08:11:35.035Z,1.18
2019-01-09T08:12:35.449Z,1.1
2019-01-09T08:13:36.863Z,1.12
2019-01-09T08:14:37.964Z,1.2
2019-01-09T08:15:38.659Z,1.2
2019-01-09T08:16:38.734Z,1.18
2019-01-09T08:17:39.312Z,1.12
2019-01-09T08:18:39.991Z,1.27
2019-01-09T08:19:40.379Z,1.21
2019-01-09T08:20:40.813Z,1.12
2019-01-09T08:21:42.386Z,1.13
2019-01-09T08:22:42.943Z,1.16
2019-01-09T08:23:43.702Z,1.16
2019-01-09T08:24:43.976Z,1.16
2019-01-09T08:25:44.621Z,1.1
2019-01-09T08:26:48.753Z,0.95
2019-01-09T08:26:59.077Z,0.94
2019-01-09T08:27:11.692Z,0.94
2019-01-09T08:27:24.463Z,0.88
2019-01-09T08:27:34.321Z,0.85
2019-01-09T08:28:34.022Z,0.7
2019-01-09T08:29:34.436Z,0.64
2019-01-09T08:30:34.850Z,0.47
2019-01-09T08:31:35.929Z,0.36
2019-01-09T08:32:36.783Z,0.23
2019-01-09T08:33:37.785Z,0.24
2019-01-09T08:34:38.200Z,0.19
2019-01-09T08:35:39.919Z,0.23
2019-01-09T08:36:40.632Z,0.15
2019-01-09T08:37:41.144Z,0.15
2019-01-09T08:38:42.341Z,0.16
2019-01-09T08:39:43.457Z,0.23
2019-01-09T08:40:43.593Z,0.24
2019-01-09T08:41:44.290Z,0.19
2019-01-09T08:42:44.706Z,0.31
2019-01-09T08:43:45.139Z,0.27
2019-01-09T08:44:45.724Z,0.37
2019-01-09T08:45:46.276Z,0.42
2019-01-09T08:46:46.970Z,0.4
2019-01-09T08:47:47.492Z,0.44
2019-01-09T08:48:48.034Z,0.55
2019-01-09T08:49:48.449Z,0.47
2019-01-09T08:50:49.914Z,0.49
2019-01-09T08:51:50.607Z,0.61
2019-01-09T08:52:51.090Z,0.59
2019-01-09T08:53:52.062Z,0.68
2019-01-09T08:54:51.754Z,0.61
2019-01-09T08:55:52.886Z,0.73
2019-01-09T08:56:53.856Z,0.78
2019-01-09T08:57:54.271Z,0.76
2019-01-09T08:58:54.811Z,0.84
2019-01-09T08:59:56.061Z,0.78
2019-01-09T09:00:56.472Z,0.85
2019-01-09T09:01:58.187Z,0.84
2019-01-09T09:02:58.603Z,0.78
2019-01-09T09:03:59.299Z,0.68
2019-01-09T09:04:59.819Z,0.66
2019-01-09T09:06:00.507Z,0.42
2019-01-09T09:07:00.472Z,0.4
2019-01-09T09:08:01.166Z,0.37
2019-01-09T09:09:01.790Z,0.45
2019-01-09T09:10:02.327Z,0.3
2019-01-09T09:11:03.027Z,0.33
2019-01-09T09:12:03.992Z,0.37
2019-01-09T09:13:04.405Z,0.29
2019-01-09T09:14:05.094Z,0.24
2019-01-09T09:15:05.452Z,0.34
2019-01-09T09:16:06.698Z,0.42
2019-01-09T09:17:07.456Z,0.45
2019-01-09T09:18:08.713Z,0.44
2019-01-09T09:19:09.809Z,0.44
2019-01-09T09:20:10.794Z,0.42
2019-01-09T09:21:11.229Z,0.47
2019-01-09T09:22:12.641Z,0.47
2019-01-09T09:23:13.343Z,0.45
2019-01-09T09:24:13.759Z,0.47
2019-01-09T09:25:14.901Z,0.56
2019-01-09T09:26:15.960Z,0.56
2019-01-09T09:27:16.741Z,0.64
2019-01-09T09:28:16.989Z,0.68
2019-01-09T09:29:17.926Z,0.76
2019-01-09T09:30:18.344Z,0.84
2019-01-09T09:31:19.041Z,0.89
2019-01-09T09:32:19.993Z,0.94
2019-01-09T09:33:21.159Z,0.96
2019-01-09T09:34:21.132Z,0.99
2019-01-09T09:35:21.266Z,0.96
2019-01-09T09:36:21.784Z,1.07
2019-01-09T09:37:22.485Z,1.02
2019-01-09T09:38:23.464Z,1.18
2019-01-09T09:39:24.331Z,1.21
2019-01-09T09:40:24.754Z,1.16
2019-01-09T09:41:25.459Z,1.12
2019-01-09T09:42:26.600Z,1.14
2019-01-09T09:43:28.011Z,1.16
2019-01-09T09:44:28.708Z,1.2
2019-01-09T09:45:29.958Z,1.18
2019-01-09T09:46:31.519Z,1.12
2019-01-09T09:47:31.433Z,1.14
2019-01-09T09:48:31.852Z,1.12
2019-01-09T09:49:32.499Z,1.18
2019-01-09T09:50:34.014Z,1.13
2019-01-09T09:51:34.974Z,1.21
2019-01-09T09:52:35.387Z,1.2
2019-01-09T09:53:36.635Z,1.22
2019-01-09T09:54:36.646Z,1.22
2019-01-09T09:55:37.612Z,1.3
2019-01-09T09:56:38.305Z,1.2
2019-01-09T09:57:38.444Z,1.13
2019-01-09T09:58:39.616Z,1.07
2019-01-09T09:59:41.047Z,1.21
2019-01-09T10:00:41.648Z,1.12
2019-01-09T10:01:43.259Z,1.12
2019-01-09T10:02:44.239Z,1.16
2019-01-09T10:03:44.651Z,1.18
2019-01-09T10:04:45.191Z,1.27
2019-01-09T10:05:45.446Z,1.31
2019-01-09T10:06:46.460Z,1.34
2019-01-09T10:07:47.515Z,1.43
2019-01-09T10:08:47.933Z,1.38
2019-01-09T10:09:49.099Z,1.4
2019-01-09T10:10:49.449Z,1.4
2019-01-09T10:11:50.585Z,1.34
2019-01-09T10:12:51.290Z,1.4
2019-01-09T10:13:51.701Z,1.42
2019-01-09T10:14:52.510Z,1.53
2019-01-09T10:15:57.517Z,1.61
2019-01-09T10:16:05.605Z,1.53
2019-01-09T10:17:06.700Z,1.71
2019-01-09T10:18:07.728Z,1.7
2019-01-09T10:19:08.146Z,1.74
2019-01-09T10:20:08.883Z,1.76
2019-01-09T10:21:09.888Z,1.75
2019-01-09T10:22:10.307Z,1.75
2019-01-09T10:23:11.000Z,1.7
2019-01-09T10:24:11.734Z,1.66
2019-01-09T10:25:12.443Z,1.67
2019-01-09T10:26:13.129Z,1.63
2019-01-09T10:27:15.893Z,1.56
2019-01-09T10:28:14.329Z,1.58
2019-01-09T10:29:15.856Z,1.57
2019-01-09T10:30:16.271Z,1.5
2019-01-09T10:31:16.564Z,1.43
2019-01-09T10:32:17.279Z,1.27
2019-01-09T10:33:17.973Z,1.3
2019-01-09T10:34:18.945Z,1.27
2019-01-09T10:35:19.368Z,1.16
2019-01-09T10:36:19.921Z,1.16
2019-01-09T10:37:21.070Z,1.13
2019-01-09T10:38:21.835Z,1.04
2019-01-09T10:39:22.580Z,1.06
2019-01-09T10:40:23.336Z,1.07
2019-01-09T10:41:23.751Z,1.12
2019-01-09T10:42:25.098Z,1.21
2019-01-09T10:43:25.388Z,1.14
2019-01-09T10:44:25.802Z,1.1
2019-01-09T10:45:27.217Z,1.07
2019-01-09T10:46:27.709Z,1.06
2019-01-09T10:47:29.857Z,1.12
2019-01-09T10:48:34.197Z,1.12
2019-01-09T10:48:43.786Z,1.06
2019-01-09T10:49:44.628Z,1.06
2019-01-09T10:50:45.599Z,1.13
2019-01-09T10:51:45.834Z,1.21
2019-01-09T10:52:47.286Z,1.12
2019-01-09T10:53:47.000Z,1.18
2019-01-09T10:54:47.720Z,1.14
2019-01-09T10:55:47.608Z,1.09
2019-01-09T10:56:48.863Z,1.13
2019-01-09T10:57:49.147Z,1.18
2019-01-09T10:58:51.753Z,1.12
2019-01-09T10:59:52.338Z,0.96
2019-01-09T11:00:51.871Z,0.92
2019-01-09T11:01:52.983Z,0.86
2019-01-09T11:02:54.104Z,0.82
2019-01-09T11:03:54.256Z,0.84
2019-01-09T11:04:54.481Z,0.92
2019-01-09T11:05:54.890Z,0.85
2019-01-09T11:06:55.582Z,0.81
2019-01-09T11:07:55.780Z,0.82
2019-01-09T11:08:56.477Z,0.82
2019-01-09T11:09:57.327Z,0.84
2019-01-09T11:10:57.621Z,0.78
2019-01-09T11:11:58.344Z,0.81
2019-01-09T11:12:58.591Z,0.66
2019-01-09T11:13:59.285Z,0.59
2019-01-09T11:15:00.710Z,0.64
2019-01-09T11:16:01.088Z,0.61
2019-01-09T11:17:01.213Z,0.58
2019-01-09T11:18:03.485Z,0.63
2019-01-09T11:19:03.176Z,0.59
2019-01-09T11:20:03.441Z,0.56
2019-01-09T11:21:04.898Z,0.49
2019-01-09T11:22:05.316Z,0.51
2019-01-09T11:23:07.259Z,0.58
2019-01-09T11:24:07.625Z,0.56
2019-01-09T11:25:08.312Z,0.39
2019-01-09T11:26:08.730Z,0.36
2019-01-09T11:27:09.703Z,0.26
2019-01-09T11:28:10.862Z,0.37
2019-01-09T11:29:11.509Z,0.26
2019-01-09T11:30:12.181Z,0.26
2019-01-09T11:31:12.872Z,0.26
2019-01-09T11:32:13.016Z,0.27
2019-01-09T11:33:15.129Z,0.33
2019-01-09T11:34:15.377Z,0.26
2019-01-09T11:35:16.479Z,0.24
2019-01-09T11:36:17.182Z,0.23
2019-01-09T11:37:21.224Z,0.11
2019-01-09T11:38:19.439Z,0.2
2019-01-09T11:39:20.575Z,0.27
2019-01-09T11:40:22.073Z,0.2
2019-01-09T11:41:22.333Z,0.24
2019-01-09T11:42:23.745Z,0.23
2019-01-09T11:43:24.269Z,0.27
2019-01-09T11:44:25.774Z,0.33
2019-01-09T11:45:26.509Z,0.26
2019-01-09T11:46:27.339Z,0.27
2019-01-09T11:47:27.197Z,0.27
2019-01-09T11:48:28.611Z,0.26
2019-01-09T11:49:29.227Z,0.34
2019-01-09T11:50:30.438Z,0.44
2019-01-09T11:51:30.849Z,0.49
2019-01-09T11:52:31.540Z,0.36
2019-01-09T11:53:31.958Z,0.44
2019-01-09T11:54:33.210Z,0.45
2019-01-09T11:55:33.980Z,0.47
2019-01-09T11:56:34.855Z,0.42
2019-01-09T11:57:35.664Z,0.44
2019-01-09T11:58:36.805Z,0.42
2019-01-09T11:59:38.225Z,0.47
2019-01-09T12:00:38.677Z,0.56
2019-01-09T12:01:40.152Z,0.63
2019-01-09T12:02:40.034Z,0.61
2019-01-09T12:03:41.347Z,0.67
2019-01-09T12:04:41.559Z,0.67
2019-01-09T12:05:42.663Z,0.7
2019-01-09T12:06:42.865Z,0.71
2019-01-09T12:07:43.563Z,0.68
2019-01-09T12:08:44.253Z,0.61
2019-01-09T12:09:44.673Z,0.71
2019-01-09T12:10:46.256Z,0.81
2019-01-09T12:11:46.464Z,0.84
2019-01-09T12:12:47.090Z,0.86
2019-01-09T12:13:50.423Z,0.82
2019-01-09T12:13:59.345Z,0.88
2019-01-09T12:15:00.195Z,0.95
2019-01-09T12:16:12.589Z,1.03
2019-01-09T12:17:13.152Z,1.2
2019-01-09T12:18:14.750Z,1.22
2019-01-09T12:19:15.230Z,1.3
2019-01-09T12:20:15.924Z,1.4
2019-01-09T12:21:18.300Z,1.32
2019-01-09T12:22:18.480Z,1.43
2019-01-09T12:23:18.863Z,1.4
2019-01-09T12:24:19.091Z,1.28
2019-01-09T12:25:19.791Z,1.31
2019-01-09T12:26:20.301Z,1.28
2019-01-09T12:27:21.408Z,1.3
2019-01-09T12:28:22.102Z,1.31
2019-01-09T12:29:22.812Z,1.53
2019-01-09T12:30:24.510Z,1.58
2019-01-09T12:31:24.946Z,1.64
2019-01-09T12:32:25.468Z,1.52
2019-01-09T12:33:27.254Z,1.27
2019-01-09T12:34:28.034Z,1.27
2019-01-09T12:35:28.727Z,1.27
2019-01-09T12:36:29.424Z,1.12
2019-01-09T12:37:29.968Z,0.96
2019-01-09T12:38:31.254Z,0.84
2019-01-09T12:39:31.391Z,0.84
2019-01-09T12:40:31.887Z,0.86
2019-01-09T12:41:32.655Z,0.89
2019-01-09T12:42:33.216Z,0.99
2019-01-09T12:43:33.627Z,1.02
2019-01-09T12:44:35.316Z,0.89
2019-01-09T12:45:39.823Z,0.81
2019-01-09T12:45:49.461Z,0.82
2019-01-09T12:46:52.124Z,0.89
2019-01-09T12:47:03.802Z,0.81
2019-01-09T12:47:17.048Z,0.85
2019-01-09T12:47:25.661Z,0.84
2019-01-09T12:48:26.385Z,0.81
2019-01-09T12:49:27.283Z,1.03
2019-01-09T12:50:28.333Z,1.02
2019-01-09T12:51:29.681Z,0.99
2019-01-09T12:52:29.526Z,1
2019-01-09T12:53:35.359Z,0.95
2019-01-09T12:53:41.997Z,0.91
2019-01-09T12:54:42.174Z,0.82
2019-01-09T12:55:42.147Z,0.82
2019-01-09T12:56:42.838Z,0.63
2019-01-09T12:57:43.273Z,0.59
2019-01-09T12:58:44.354Z,0.58
2019-01-09T12:59:44.791Z,0.74
2019-01-09T13:00:46.208Z,0.67
2019-01-09T13:01:49.692Z,0.64
2019-01-09T13:02:48.682Z,0.67
2019-01-09T13:03:49.098Z,0.68
2019-01-09T13:04:49.715Z,0.74
2019-01-09T13:05:50.499Z,0.76
2019-01-09T13:06:50.912Z,0.85
2019-01-09T13:07:51.890Z,0.85
2019-01-09T13:08:52.675Z,0.96
2019-01-09T13:09:53.299Z,0.96
2019-01-09T13:10:54.435Z,1.12
2019-01-09T13:11:55.404Z,1.09
2019-01-09T13:12:55.822Z,1.02
2019-01-09T13:13:57.419Z,1.03
2019-01-09T13:14:57.285Z,1.16
2019-01-09T13:15:58.703Z,1.2
2019-01-09T13:16:59.841Z,1.13
2019-01-09T13:18:00.989Z,1.1
2019-01-09T13:19:02.519Z,1
2019-01-09T13:20:03.305Z,0.95
2019-01-09T13:21:04.000Z,0.88
2019-01-09T13:22:04.694Z,0.78
2019-01-09T13:23:05.769Z,0.68
2019-01-09T13:24:06.554Z,0.61
2019-01-09T13:25:06.956Z,0.63
2019-01-09T13:26:07.128Z,0.63
2019-01-09T13:27:07.853Z,0.66
2019-01-09T13:28:08.592Z,0.68
2019-01-09T13:29:08.773Z,0.52
2019-01-09T13:30:10.702Z,0.48
2019-01-09T13:31:10.556Z,0.4
2019-01-09T13:32:11.257Z,0.45
2019-01-09T13:33:12.529Z,0.45
2019-01-09T13:34:12.223Z,0.24
2019-01-09T13:35:13.097Z,0.33
2019-01-09T13:36:14.232Z,0.44
2019-01-09T13:37:14.752Z,0.47
2019-01-09T13:38:15.924Z,0.39
2019-01-09T13:39:16.338Z,0.31
2019-01-09T13:40:17.060Z,0.29
2019-01-09T13:41:17.874Z,0.33
2019-01-09T13:42:19.692Z,0.3
2019-01-09T13:43:20.165Z,0.27
2019-01-09T13:44:20.857Z,0.29
2019-01-09T13:45:21.038Z,0.24
2019-01-09T13:46:23.749Z,0.26
2019-01-09T13:47:25.682Z,0.26
2019-01-09T13:47:33.526Z,0.26
2019-01-09T13:48:33.803Z,0.23
2019-01-09T13:49:34.665Z,0.27
2019-01-09T13:50:39.329Z,0.3
2019-01-09T13:51:43.735Z,0.27
2019-01-09T13:51:52.481Z,0.3
2019-01-09T13:52:52.090Z,0.31
2019-01-09T13:53:52.793Z,0.29
2019-01-09T13:54:53.777Z,0.33
2019-01-09T13:55:54.481Z,0.33
2019-01-09T13:56:58.650Z,0.26
2019-01-09T13:58:00.596Z,0.24
2019-01-09T13:58:09.720Z,0.3
2019-01-09T13:59:13.193Z,0.27
2019-01-09T13:59:23.503Z,0.27
2019-01-09T14:00:22.051Z,0.31
2019-01-09T14:01:22.506Z,0.3
2019-01-09T14:02:23.266Z,0.4
2019-01-09T14:03:23.770Z,0.42
2019-01-09T14:04:24.809Z,0.45
2019-01-09T14:05:25.958Z,0.45
2019-01-09T14:06:26.367Z,0.31
2019-01-09T14:07:26.977Z,0.33
2019-01-09T14:08:27.390Z,0.31
2019-01-09T14:09:27.806Z,0.3
2019-01-09T14:10:28.720Z,0.36
2019-01-09T14:11:28.987Z,0.42
2019-01-09T14:12:29.683Z,0.36
2019-01-09T14:13:30.954Z,0.47
2019-01-09T14:14:30.647Z,0.39
2019-01-09T14:15:31.616Z,0.42
2019-01-09T14:16:32.385Z,0.42
2019-01-09T14:17:33.353Z,0.4
2019-01-09T14:18:34.023Z,0.29
2019-01-09T14:19:35.141Z,0.23
2019-01-09T14:20:35.409Z,0.31
2019-01-09T14:21:40.792Z,0.3
2019-01-09T14:21:49.669Z,0.31
2019-01-09T14:22:36.063Z,0.27
2019-01-09T14:23:36.385Z,0.27
2019-01-09T14:24:36.359Z,0.23
2019-01-09T14:25:37.088Z,0.3
2019-01-09T14:26:37.506Z,0.36
2019-01-09T14:27:38.819Z,0.26
2019-01-09T14:28:39.338Z,0.24
2019-01-09T14:29:40.313Z,0.27
2019-01-09T14:30:40.742Z,0.3
2019-01-09T14:31:41.279Z,0.29
2019-01-09T14:32:42.571Z,0.29
2019-01-09T14:33:43.484Z,0.27
2019-01-09T14:34:44.308Z,0.31
2019-01-09T14:35:44.477Z,0.36
2019-01-09T14:36:45.361Z,0.39
2019-01-09T14:37:46.054Z,0.36
2019-01-09T14:38:46.873Z,0.36
2019-01-09T14:39:49.413Z,0.3
2019-01-09T14:40:49.548Z,0.26
2019-01-09T14:41:50.958Z,0.19
2019-01-09T14:42:51.090Z,0.19
2019-01-09T14:43:51.915Z,0.19
2019-01-09T14:44:52.840Z,0.23
2019-01-09T14:45:53.109Z,0.19
2019-01-09T14:46:53.595Z,0.29
2019-01-09T14:47:54.291Z,0.24
2019-01-09T14:48:54.980Z,0.2
2019-01-09T14:49:55.978Z,0.24
2019-01-09T14:50:56.504Z,0.18
2019-01-09T14:51:57.194Z,0.15
2019-01-09T14:52:57.958Z,0.2
2019-01-09T14:53:58.117Z,0.08
2019-01-09T14:54:58.945Z,0.15
2019-01-09T14:56:00.441Z,-0.03
2019-01-09T14:56:59.965Z,0.02
2019-01-09T14:58:00.375Z,0
2019-01-09T14:59:02.180Z,0
2019-01-09T15:00:02.871Z,0.01
2019-01-09T15:01:07.655Z,-0.15
2019-01-09T15:01:18.575Z,0